sensor_id;sensor_type;location;lat;lon;timestamp;pressure;altitude;pressure_sealevel;temperature
66113;BMP280;52893;52.870;5.822;2023-04-24T00:01:00;99634.91;;;12.27
66113;BMP280;52893;52.870;5.822;2023-04-24T00:03:28;99637.22;;;12.25
66113;BMP280;52893;52.870;5.822;2023-04-24T00:05:55;99638.78;;;12.26
66113;BMP280;52893;52.870;5.822;2023-04-24T00:08:22;99635.66;;;12.24
66113;BMP280;52893;52.870;5.822;2023-04-24T00:10:51;99630.13;;;12.20
66113;BMP280;52893;52.870;5.822;2023-04-24T00:13:19;99630.13;;;12.20
66113;BMP280;52893;52.870;5.822;2023-04-24T00:15:46;99625.00;;;12.19
66113;BMP280;52893;52.870;5.822;2023-04-24T00:18:13;99629.66;;;12.15
66113;BMP280;52893;52.870;5.822;2023-04-24T00:20:40;99624.44;;;12.09
66113;BMP280;52893;52.870;5.822;2023-04-24T00:23:09;99632.19;;;12.04
66113;BMP280;52893;52.870;5.822;2023-04-24T00:25:36;99626.66;;;12.00
66113;BMP280;52893;52.870;5.822;2023-04-24T00:28:05;99638.28;;;11.97
66113;BMP280;52893;52.870;5.822;2023-04-24T00:30:32;99623.81;;;11.93
66113;BMP280;52893;52.870;5.822;2023-04-24T00:32:59;99633.63;;;11.98
66113;BMP280;52893;52.870;5.822;2023-04-24T00:35:27;99634.00;;;11.96
66113;BMP280;52893;52.870;5.822;2023-04-24T00:37:54;99632.34;;;11.92
66113;BMP280;52893;52.870;5.822;2023-04-24T00:40:21;99632.25;;;11.88
66113;BMP280;52893;52.870;5.822;2023-04-24T00:42:49;99628.72;;;11.84
66113;BMP280;52893;52.870;5.822;2023-04-24T00:45:17;99622.72;;;11.79
66113;BMP280;52893;52.870;5.822;2023-04-24T00:47:45;99626.19;;;11.76
66113;BMP280;52893;52.870;5.822;2023-04-24T00:50:15;99635.53;;;11.75
66113;BMP280;52893;52.870;5.822;2023-04-24T00:52:43;99635.91;;;11.73
66113;BMP280;52893;52.870;5.822;2023-04-24T00:55:10;99624.53;;;11.71
66113;BMP280;52893;52.870;5.822;2023-04-24T00:57:37;99626.13;;;11.72
66113;BMP280;52893;52.870;5.822;2023-04-24T01:00:06;99631.59;;;11.72
66113;BMP280;52893;52.870;5.822;2023-04-24T01:02:39;99623.41;;;11.72
66113;BMP280;52893;52.870;5.822;2023-04-24T01:05:09;99622.97;;;11.70
66113;BMP280;52893;52.870;5.822;2023-04-24T01:07:38;99621.88;;;11.75
66113;BMP280;52893;52.870;5.822;2023-04-24T01:10:07;99616.00;;;11.73
66113;BMP280;52893;52.870;5.822;2023-04-24T01:12:34;99629.28;;;11.74
66113;BMP280;52893;52.870;5.822;2023-04-24T01:15:02;99626.13;;;11.72
66113;BMP280;52893;52.870;5.822;2023-04-24T01:17:31;99623.75;;;11.71
66113;BMP280;52893;52.870;5.822;2023-04-24T01:20:00;99621.38;;;11.69
66113;BMP280;52893;52.870;5.822;2023-04-24T01:22:33;99628.00;;;11.68
66113;BMP280;52893;52.870;5.822;2023-04-24T01:25:00;99608.72;;;11.61
66113;BMP280;52893;52.870;5.822;2023-04-24T01:27:30;99608.72;;;11.61
66113;BMP280;52893;52.870;5.822;2023-04-24T01:29:57;99620.56;;;11.69
66113;BMP280;52893;52.870;5.822;2023-04-24T01:32:25;99615.06;;;11.65
66113;BMP280;52893;52.870;5.822;2023-04-24T01:34:52;99622.22;;;11.73
66113;BMP280;52893;52.870;5.822;2023-04-24T01:37:19;99628.50;;;11.74
66113;BMP280;52893;52.870;5.822;2023-04-24T01:39:48;99621.09;;;11.74
66113;BMP280;52893;52.870;5.822;2023-04-24T01:42:16;99625.75;;;11.74
66113;BMP280;52893;52.870;5.822;2023-04-24T01:44:43;99623.81;;;11.74
66113;BMP280;52893;52.870;5.822;2023-04-24T01:47:12;99626.56;;;11.74
66113;BMP280;52893;52.870;5.822;2023-04-24T01:49:39;99628.50;;;11.74
66113;BMP280;52893;52.870;5.822;2023-04-24T01:52:06;99629.28;;;11.74
66113;BMP280;52893;52.870;5.822;2023-04-24T01:54:33;99629.66;;;11.73
66113;BMP280;52893;52.870;5.822;2023-04-24T01:57:03;99627.28;;;11.71
66113;BMP280;52893;52.870;5.822;2023-04-24T01:59:33;99623.41;;;11.72
66113;BMP280;52893;52.870;5.822;2023-04-24T02:02:00;99627.28;;;11.71
66113;BMP280;52893;52.870;5.822;2023-04-24T02:04:28;99626.25;;;11.60
66113;BMP280;52893;52.870;5.822;2023-04-24T02:06:55;99621.69;;;11.64
66113;BMP280;52893;52.870;5.822;2023-04-24T02:09:24;99625.22;;;11.65
66113;BMP280;52893;52.870;5.822;2023-04-24T02:11:51;99617.66;;;11.58
66113;BMP280;52893;52.870;5.822;2023-04-24T02:14:20;99629.78;;;11.60
66113;BMP280;52893;52.870;5.822;2023-04-24T02:16:47;99630.16;;;11.59
66113;BMP280;52893;52.870;5.822;2023-04-24T02:19:14;99628.59;;;11.58
66113;BMP280;52893;52.870;5.822;2023-04-24T02:21:41;99627.03;;;11.57
66113;BMP280;52893;52.870;5.822;2023-04-24T02:24:08;99627.03;;;11.57
66113;BMP280;52893;52.870;5.822;2023-04-24T02:26:36;99624.28;;;11.57
66113;BMP280;52893;52.870;5.822;2023-04-24T02:29:03;99626.22;;;11.56
66113;BMP280;52893;52.870;5.822;2023-04-24T02:31:32;99626.56;;;11.55
66113;BMP280;52893;52.870;5.822;2023-04-24T02:33:59;99622.25;;;11.54
66113;BMP280;52893;52.870;5.822;2023-04-24T02:36:27;99625.00;;;11.54
66113;BMP280;52893;52.870;5.822;2023-04-24T02:38:54;99625.00;;;11.54
66113;BMP280;52893;52.870;5.822;2023-04-24T02:41:21;99617.94;;;11.53
66113;BMP280;52893;52.870;5.822;2023-04-24T02:43:48;99625.78;;;11.54
66113;BMP280;52893;52.870;5.822;2023-04-24T02:46:16;99629.66;;;11.53
66113;BMP280;52893;52.870;5.822;2023-04-24T02:48:46;99622.59;;;11.52
66113;BMP280;52893;52.870;5.822;2023-04-24T02:51:13;99622.94;;;11.51
66113;BMP280;52893;52.870;5.822;2023-04-24T02:53:40;99631.91;;;11.48
66113;BMP280;52893;52.870;5.822;2023-04-24T02:56:07;99625.66;;;11.47
66113;BMP280;52893;52.870;5.822;2023-04-24T02:58:34;99627.59;;;11.47
66113;BMP280;52893;52.870;5.822;2023-04-24T03:01:02;99636.22;;;11.49
66113;BMP280;52893;52.870;5.822;2023-04-24T03:03:30;99631.56;;;11.49
66113;BMP280;52893;52.870;5.822;2023-04-24T03:05:58;99634.34;;;11.53
66113;BMP280;52893;52.870;5.822;2023-04-24T03:08:25;99637.84;;;11.53
66113;BMP280;52893;52.870;5.822;2023-04-24T03:10:53;99630.38;;;11.50
66113;BMP280;52893;52.870;5.822;2023-04-24T03:13:20;99640.16;;;11.51
66113;BMP280;52893;52.870;5.822;2023-04-24T03:15:47;99640.16;;;11.51
66113;BMP280;52893;52.870;5.822;2023-04-24T03:18:14;99640.94;;;11.52
66113;BMP280;52893;52.870;5.822;2023-04-24T03:20:42;99639.00;;;11.52
66113;BMP280;52893;52.870;5.822;2023-04-24T03:23:11;99637.41;;;11.51
66113;BMP280;52893;52.870;5.822;2023-04-24T03:25:38;99645.25;;;11.53
66113;BMP280;52893;52.870;5.822;2023-04-24T03:28:07;99654.59;;;11.52
66113;BMP280;52893;52.870;5.822;2023-04-24T03:30:44;99651.47;;;11.50
66113;BMP280;52893;52.870;5.822;2023-04-24T03:33:12;99654.91;;;11.47
66113;BMP280;52893;52.870;5.822;2023-04-24T03:35:47;99641.19;;;11.43
66113;BMP280;52893;52.870;5.822;2023-04-24T03:38:16;99647.41;;;11.44
66113;BMP280;52893;52.870;5.822;2023-04-24T03:40:43;99655.19;;;11.42
66113;BMP280;52893;52.870;5.822;2023-04-24T03:43:26;99654.41;;;11.41
66113;BMP280;52893;52.870;5.822;2023-04-24T03:45:55;99661.72;;;11.37
66113;BMP280;52893;52.870;5.822;2023-04-24T03:48:23;99668.34;;;11.36
66113;BMP280;52893;52.870;5.822;2023-04-24T03:50:51;99667.13;;;11.34
66113;BMP280;52893;52.870;5.822;2023-04-24T03:53:19;99660.41;;;11.31
66113;BMP280;52893;52.870;5.822;2023-04-24T03:55:48;99663.53;;;11.30
66113;BMP280;52893;52.870;5.822;2023-04-24T03:58:15;99664.66;;;11.29
66113;BMP280;52893;52.870;5.822;2023-04-24T04:00:43;99667.78;;;11.27
66113;BMP280;52893;52.870;5.822;2023-04-24T04:03:38;99666.97;;;11.27
66113;BMP280;52893;52.870;5.822;2023-04-24T04:06:06;99672.69;;;11.22
66113;BMP280;52893;52.870;5.822;2023-04-24T04:08:34;99671.91;;;11.21
66113;BMP280;52893;52.870;5.822;2023-04-24T04:11:02;99676.63;;;11.21
66113;BMP280;52893;52.870;5.822;2023-04-24T04:13:29;99678.09;;;11.18
66113;BMP280;52893;52.870;5.822;2023-04-24T04:15:57;99679.59;;;11.15
66113;BMP280;52893;52.870;5.822;2023-04-24T04:18:24;99693.25;;;11.15
66113;BMP280;52893;52.870;5.822;2023-04-24T04:20:51;99687.34;;;11.13
66113;BMP280;52893;52.870;5.822;2023-04-24T04:23:19;99696.69;;;11.12
66113;BMP280;52893;52.870;5.822;2023-04-24T04:26:03;99702.53;;;11.11
66113;BMP280;52893;52.870;5.822;2023-04-24T04:28:45;99709.94;;;11.10
66113;BMP280;52893;52.870;5.822;2023-04-24T04:31:13;99707.19;;;11.10
66113;BMP280;52893;52.870;5.822;2023-04-24T04:33:40;99716.97;;;11.11
66113;BMP280;52893;52.870;5.822;2023-04-24T04:36:10;99717.75;;;11.12
66113;BMP280;52893;52.870;5.822;2023-04-24T04:38:44;99718.47;;;11.09
66113;BMP280;52893;52.870;5.822;2023-04-24T04:41:36;99725.88;;;11.08
66113;BMP280;52893;52.870;5.822;2023-04-24T04:44:07;99732.47;;;11.07
66113;BMP280;52893;52.870;5.822;2023-04-24T04:46:35;99740.22;;;11.05
66113;BMP280;52893;52.870;5.822;2023-04-24T04:49:13;99743.84;;;11.09
66113;BMP280;52893;52.870;5.822;2023-04-24T04:51:42;99748.16;;;11.10
66113;BMP280;52893;52.870;5.822;2023-04-24T04:54:10;99750.53;;;11.12
66113;BMP280;52893;52.870;5.822;2023-04-24T04:56:39;99757.53;;;11.13
66113;BMP280;52893;52.870;5.822;2023-04-24T04:59:06;99755.44;;;11.06
66113;BMP280;52893;52.870;5.822;2023-04-24T05:01:35;99760.69;;;11.11
66113;BMP280;52893;52.870;5.822;2023-04-24T05:04:03;99768.88;;;11.11
66113;BMP280;52893;52.870;5.822;2023-04-24T05:06:30;99764.53;;;11.10
66113;BMP280;52893;52.870;5.822;2023-04-24T05:08:58;99772.75;;;11.10
66113;BMP280;52893;52.870;5.822;2023-04-24T05:11:34;99771.84;;;11.06
66113;BMP280;52893;52.870;5.822;2023-04-24T05:14:03;99765.75;;;10.97
66113;BMP280;52893;52.870;5.822;2023-04-24T05:16:36;99779.22;;;11.06
66113;BMP280;52893;52.870;5.822;2023-04-24T05:19:05;99783.13;;;11.05
66113;BMP280;52893;52.870;5.822;2023-04-24T05:21:39;99792.84;;;11.02
66113;BMP280;52893;52.870;5.822;2023-04-24T05:24:07;99797.38;;;10.98
66113;BMP280;52893;52.870;5.822;2023-04-24T05:26:53;99803.97;;;10.97
66113;BMP280;52893;52.870;5.822;2023-04-24T05:29:27;99806.28;;;10.95
66113;BMP280;52893;52.870;5.822;2023-04-24T05:31:56;99817.22;;;10.95
66113;BMP280;52893;52.870;5.822;2023-04-24T05:34:25;99812.53;;;10.96
66113;BMP280;52893;52.870;5.822;2023-04-24T05:36:55;99821.94;;;10.98
66113;BMP280;52893;52.870;5.822;2023-04-24T05:39:22;99830.59;;;11.00
66113;BMP280;52893;52.870;5.822;2023-04-24T05:41:51;99829.00;;;10.99
66113;BMP280;52893;52.870;5.822;2023-04-24T05:44:18;99835.19;;;10.96
66113;BMP280;52893;52.870;5.822;2023-04-24T05:46:47;99837.44;;;10.94
66113;BMP280;52893;52.870;5.822;2023-04-24T05:49:15;99848.19;;;10.87
66113;BMP280;52893;52.870;5.822;2023-04-24T05:51:43;99854.53;;;10.91
66113;BMP280;52893;52.870;5.822;2023-04-24T05:54:10;99853.66;;;10.87
66113;BMP280;52893;52.870;5.822;2023-04-24T05:56:38;99856.84;;;10.89
66113;BMP280;52893;52.870;5.822;2023-04-24T05:59:06;99865.47;;;10.91
66113;BMP280;52893;52.870;5.822;2023-04-24T06:01:34;99867.06;;;10.92
66113;BMP280;52893;52.870;5.822;2023-04-24T06:04:12;99857.28;;;10.91
66113;BMP280;52893;52.870;5.822;2023-04-24T06:06:40;99859.28;;;10.94
66113;BMP280;52893;52.870;5.822;2023-04-24T06:09:09;99865.13;;;10.93
66113;BMP280;52893;52.870;5.822;2023-04-24T06:11:36;99870.31;;;10.98
66113;BMP280;52893;52.870;5.822;2023-04-24T06:14:03;99876.56;;;10.98
66113;BMP280;52893;52.870;5.822;2023-04-24T06:16:37;99881.34;;;11.01
66113;BMP280;52893;52.870;5.822;2023-04-24T06:19:16;99888.41;;;11.02
66113;BMP280;52893;52.870;5.822;2023-04-24T06:21:43;99880.56;;;11.01
66113;BMP280;52893;52.870;5.822;2023-04-24T06:24:10;99895.63;;;11.10
66113;BMP280;52893;52.870;5.822;2023-04-24T06:26:38;99892.91;;;11.10
66113;BMP280;52893;52.870;5.822;2023-04-24T06:29:07;99900.94;;;11.19
66113;BMP280;52893;52.870;5.822;2023-04-24T06:31:35;99902.91;;;11.22
66113;BMP280;52893;52.870;5.822;2023-04-24T06:34:03;99906.91;;;11.25
66113;BMP280;52893;52.870;5.822;2023-04-24T06:36:32;99910.44;;;11.25
66113;BMP280;52893;52.870;5.822;2023-04-24T06:39:00;99913.03;;;11.22
66113;BMP280;52893;52.870;5.822;2023-04-24T06:41:28;99925.50;;;11.19
66113;BMP280;52893;52.870;5.822;2023-04-24T06:43:55;99923.38;;;11.12
66113;BMP280;52893;52.870;5.822;2023-04-24T06:46:23;99923.63;;;11.07
66113;BMP280;52893;52.870;5.822;2023-04-24T06:48:52;99916.38;;;10.99
66113;BMP280;52893;52.870;5.822;2023-04-24T06:51:22;99948.53;;;11.06
66113;BMP280;52893;52.870;5.822;2023-04-24T06:53:51;99958.94;;;11.00
66113;BMP280;52893;52.870;5.822;2023-04-24T06:56:18;99953.00;;;10.98
66113;BMP280;52893;52.870;5.822;2023-04-24T06:58:46;99959.88;;;10.92
66113;BMP280;52893;52.870;5.822;2023-04-24T07:01:13;99971.84;;;10.88
66113;BMP280;52893;52.870;5.822;2023-04-24T07:03:40;99972.19;;;10.86
66113;BMP280;52893;52.870;5.822;2023-04-24T07:06:07;99965.13;;;10.85
66113;BMP280;52893;52.870;5.822;2023-04-24T07:08:37;99968.34;;;10.75
66113;BMP280;52893;52.870;5.822;2023-04-24T07:11:06;99979.84;;;10.81
66113;BMP280;52893;52.870;5.822;2023-04-24T07:13:33;99984.50;;;10.80
66113;BMP280;52893;52.870;5.822;2023-04-24T07:16:01;99998.16;;;10.80
66113;BMP280;52893;52.870;5.822;2023-04-24T07:18:28;99993.84;;;10.79
66113;BMP280;52893;52.870;5.822;2023-04-24T07:20:56;99996.91;;;10.78
66113;BMP280;52893;52.870;5.822;2023-04-24T07:23:23;100012.00;;;10.75
66113;BMP280;52893;52.870;5.822;2023-04-24T07:25:50;100017.84;;;10.74
66113;BMP280;52893;52.870;5.822;2023-04-24T07:28:19;100023.19;;;10.70
66113;BMP280;52893;52.870;5.822;2023-04-24T07:30:46;100026.16;;;10.65
66113;BMP280;52893;52.870;5.822;2023-04-24T07:33:14;100030.72;;;10.61
66113;BMP280;52893;52.870;5.822;2023-04-24T07:35:41;100031.84;;;10.60
66113;BMP280;52893;52.870;5.822;2023-04-24T07:38:09;100036.84;;;10.58
66113;BMP280;52893;52.870;5.822;2023-04-24T07:40:37;100043.81;;;10.55
66113;BMP280;52893;52.870;5.822;2023-04-24T07:43:04;100054.28;;;10.53
66113;BMP280;52893;52.870;5.822;2023-04-24T07:45:33;100066.22;;;10.49
66113;BMP280;52893;52.870;5.822;2023-04-24T07:48:03;100078.13;;;10.44
66113;BMP280;52893;52.870;5.822;2023-04-24T07:50:30;100066.22;;;10.37
66113;BMP280;52893;52.870;5.822;2023-04-24T07:52:57;100077.22;;;10.28
66113;BMP280;52893;52.870;5.822;2023-04-24T07:55:25;100078.69;;;10.25
66113;BMP280;52893;52.870;5.822;2023-04-24T07:57:52;100084.84;;;10.22
66113;BMP280;52893;52.870;5.822;2023-04-24T08:00:19;100089.97;;;10.24
66113;BMP280;52893;52.870;5.822;2023-04-24T08:02:48;100082.22;;;10.26
66113;BMP280;52893;52.870;5.822;2023-04-24T08:05:16;100089.50;;;10.34
66113;BMP280;52893;52.870;5.822;2023-04-24T08:07:43;100098.25;;;10.40
66113;BMP280;52893;52.870;5.822;2023-04-24T08:10:12;100102.69;;;10.44
66113;BMP280;52893;52.870;5.822;2023-04-24T08:12:39;100108.25;;;10.48
66113;BMP280;52893;52.870;5.822;2023-04-24T08:15:07;100111.09;;;10.51
66113;BMP280;52893;52.870;5.822;2023-04-24T08:17:35;100095.53;;;10.52
66113;BMP280;52893;52.870;5.822;2023-04-24T08:20:05;100121.31;;;10.66
66113;BMP280;52893;52.870;5.822;2023-04-24T08:22:36;100121.19;;;10.75
66113;BMP280;52893;52.870;5.822;2023-04-24T08:25:04;100123.91;;;10.75
66113;BMP280;52893;52.870;5.822;2023-04-24T08:27:31;100138.16;;;10.81
66113;BMP280;52893;52.870;5.822;2023-04-24T08:29:58;100134.38;;;10.85
66113;BMP280;52893;52.870;5.822;2023-04-24T08:32:26;100143.50;;;10.89
66113;BMP280;52893;52.870;5.822;2023-04-24T08:34:54;100154.16;;;10.94
66113;BMP280;52893;52.870;5.822;2023-04-24T08:37:25;100157.38;;;10.96
66113;BMP280;52893;52.870;5.822;2023-04-24T08:39:52;100155.78;;;10.95
66113;BMP280;52893;52.870;5.822;2023-04-24T08:42:20;100160.66;;;11.02
66113;BMP280;52893;52.870;5.822;2023-04-24T08:44:48;100155.31;;;10.93
66113;BMP280;52893;52.870;5.822;2023-04-24T08:47:16;100161.34;;;10.99
66113;BMP280;52893;52.870;5.822;2023-04-24T08:49:44;100171.66;;;11.05
66113;BMP280;52893;52.870;5.822;2023-04-24T08:52:15;100176.94;;;11.10
66113;BMP280;52893;52.870;5.822;2023-04-24T08:54:45;100182.84;;;11.12
66113;BMP280;52893;52.870;5.822;2023-04-24T08:57:22;100184.41;;;11.13
66113;BMP280;52893;52.870;5.822;2023-04-24T08:59:50;100186.72;;;11.11
66113;BMP280;52893;52.870;5.822;2023-04-24T09:02:19;100190.13;;;11.08
66113;BMP280;52893;52.870;5.822;2023-04-24T09:04:47;100199.13;;;11.09
66113;BMP280;52893;52.870;5.822;2023-04-24T09:07:16;100201.72;;;11.05
66113;BMP280;52893;52.870;5.822;2023-04-24T09:09:45;100216.09;;;11.02
66113;BMP280;52893;52.870;5.822;2023-04-24T09:12:12;100207.91;;;11.02
66113;BMP280;52893;52.870;5.822;2023-04-24T09:14:39;100216.66;;;10.96
66113;BMP280;52893;52.870;5.822;2023-04-24T09:17:10;100212.75;;;10.85
66113;BMP280;52893;52.870;5.822;2023-04-24T09:19:38;100235.88;;;10.87
66113;BMP280;52893;52.870;5.822;2023-04-24T09:22:06;100239.63;;;10.70
66113;BMP280;52893;52.870;5.822;2023-04-24T09:24:34;100247.44;;;10.60
66113;BMP280;52893;52.870;5.822;2023-04-24T09:27:03;100194.34;;;10.12
66113;BMP280;52893;52.870;5.822;2023-04-24T09:29:31;100249.78;;;10.49
66113;BMP280;52893;52.870;5.822;2023-04-24T09:31:59;100259.56;;;10.50
66113;BMP280;52893;52.870;5.822;2023-04-24T09:34:27;100238.19;;;10.40
66113;BMP280;52893;52.870;5.822;2023-04-24T09:36:54;100254.91;;;10.51
66113;BMP280;52893;52.870;5.822;2023-04-24T09:39:21;100268.69;;;10.54
66113;BMP280;52893;52.870;5.822;2023-04-24T09:41:50;100256.75;;;10.59
66113;BMP280;52893;52.870;5.822;2023-04-24T09:44:19;100272.47;;;10.62
66113;BMP280;52893;52.870;5.822;2023-04-24T09:46:51;100272.69;;;10.69
66113;BMP280;52893;52.870;5.822;2023-04-24T09:49:22;100272.75;;;10.81
66113;BMP280;52893;52.870;5.822;2023-04-24T09:51:50;100267.50;;;10.88
66113;BMP280;52893;52.870;5.822;2023-04-24T09:54:20;100280.47;;;10.91
66113;BMP280;52893;52.870;5.822;2023-04-24T09:56:49;100286.84;;;10.95
66113;BMP280;52893;52.870;5.822;2023-04-24T09:59:19;100267.47;;;10.76
66113;BMP280;52893;52.870;5.822;2023-04-24T10:01:46;100300.81;;;10.94
66113;BMP280;52893;52.870;5.822;2023-04-24T10:04:16;100298.34;;;10.89
66113;BMP280;52893;52.870;5.822;2023-04-24T10:06:44;100280.00;;;10.77
66113;BMP280;52893;52.870;5.822;2023-04-24T10:09:15;100314.84;;;10.92
66113;BMP280;52893;52.870;5.822;2023-04-24T10:11:44;100284.66;;;10.77
66113;BMP280;52893;52.870;5.822;2023-04-24T10:14:13;100315.28;;;11.06
66113;BMP280;52893;52.870;5.822;2023-04-24T10:16:43;100256.31;;;10.69
66113;BMP280;52893;52.870;5.822;2023-04-24T10:19:13;100320.63;;;11.15
66113;BMP280;52893;52.870;5.822;2023-04-24T10:21:41;100324.63;;;11.18
66113;BMP280;52893;52.870;5.822;2023-04-24T10:24:12;100325.13;;;11.20
66113;BMP280;52893;52.870;5.822;2023-04-24T10:26:40;100323.25;;;11.24
66113;BMP280;52893;52.870;5.822;2023-04-24T10:29:08;100337.16;;;11.31
66113;BMP280;52893;52.870;5.822;2023-04-24T10:31:39;100330.78;;;11.39
66113;BMP280;52893;52.870;5.822;2023-04-24T10:34:09;100323.25;;;11.36
66113;BMP280;52893;52.870;5.822;2023-04-24T10:36:41;100338.63;;;11.52
66113;BMP280;52893;52.870;5.822;2023-04-24T10:39:11;100295.03;;;11.32
66113;BMP280;52893;52.870;5.822;2023-04-24T10:41:40;100355.25;;;11.72
66113;BMP280;52893;52.870;5.822;2023-04-24T10:44:09;100351.91;;;11.78
66113;BMP280;52893;52.870;5.822;2023-04-24T10:46:37;100354.66;;;11.78
66113;BMP280;52893;52.870;5.822;2023-04-24T10:49:05;100335.78;;;11.61
66113;BMP280;52893;52.870;5.822;2023-04-24T10:51:47;100362.63;;;11.83
66113;BMP280;52893;52.870;5.822;2023-04-24T10:54:26;100328.25;;;11.58
66113;BMP280;52893;52.870;5.822;2023-04-24T10:57:26;100367.56;;;11.78
66113;BMP280;52893;52.870;5.822;2023-04-24T11:00:12;100372.25;;;11.65
66113;BMP280;52893;52.870;5.822;2023-04-24T11:02:40;100379.28;;;11.54
66113;BMP280;52893;52.870;5.822;2023-04-24T11:05:15;100384.75;;;11.42
66113;BMP280;52893;52.870;5.822;2023-04-24T11:08:15;100378.16;;;11.31
66113;BMP280;52893;52.870;5.822;2023-04-24T11:10:44;100356.06;;;11.11
66113;BMP280;52893;52.870;5.822;2023-04-24T11:13:14;100389.06;;;11.19
66113;BMP280;52893;52.870;5.822;2023-04-24T11:15:42;100396.56;;;11.22
66113;BMP280;52893;52.870;5.822;2023-04-24T11:18:13;100322.06;;;10.76
66113;BMP280;52893;52.870;5.822;2023-04-24T11:20:44;100355.78;;;10.92
66113;BMP280;52893;52.870;5.822;2023-04-24T11:23:12;100406.25;;;11.31
66113;BMP280;52893;52.870;5.822;2023-04-24T11:26:10;100416.41;;;11.43
66113;BMP280;52893;52.870;5.822;2023-04-24T11:28:44;100377.34;;;11.18
66113;BMP280;52893;52.870;5.822;2023-04-24T11:31:34;100425.72;;;11.30
66113;BMP280;52893;52.870;5.822;2023-04-24T11:34:07;100430.56;;;11.00
66113;BMP280;52893;52.870;5.822;2023-04-24T11:36:35;100389.50;;;10.43
66113;BMP280;52893;52.870;5.822;2023-04-24T11:39:02;100412.69;;;10.37
66113;BMP280;52893;52.870;5.822;2023-04-24T11:41:31;100356.75;;;9.80
66113;BMP280;52893;52.870;5.822;2023-04-24T11:44:00;100380.28;;;9.85
66113;BMP280;52893;52.870;5.822;2023-04-24T11:46:28;100411.72;;;10.12
66113;BMP280;52893;52.870;5.822;2023-04-24T11:48:56;100406.69;;;10.22
66113;BMP280;52893;52.870;5.822;2023-04-24T11:51:24;100438.63;;;10.43
66113;BMP280;52893;52.870;5.822;2023-04-24T11:53:52;100440.16;;;10.52
66113;BMP280;52893;52.870;5.822;2023-04-24T11:56:21;100427.06;;;10.58
66113;BMP280;52893;52.870;5.822;2023-04-24T11:58:51;100442.56;;;10.66
66113;BMP280;52893;52.870;5.822;2023-04-24T12:01:19;100445.53;;;10.82
66113;BMP280;52893;52.870;5.822;2023-04-24T12:03:50;100436.56;;;10.93
66113;BMP280;52893;52.870;5.822;2023-04-24T12:06:18;100409.13;;;10.90
66113;BMP280;52893;52.870;5.822;2023-04-24T12:08:47;100413.38;;;10.99
66113;BMP280;52893;52.870;5.822;2023-04-24T12:11:16;100447.00;;;11.24
66113;BMP280;52893;52.870;5.822;2023-04-24T12:13:45;100441.69;;;11.28
66113;BMP280;52893;52.870;5.822;2023-04-24T12:16:14;100449.41;;;11.26
66113;BMP280;52893;52.870;5.822;2023-04-24T12:18:42;100434.13;;;11.12
66113;BMP280;52893;52.870;5.822;2023-04-24T12:21:17;100450.97;;;11.14
66113;BMP280;52893;52.870;5.822;2023-04-24T12:23:45;100457.84;;;11.21
66113;BMP280;52893;52.870;5.822;2023-04-24T12:26:16;100450.69;;;11.28
66113;BMP280;52893;52.870;5.822;2023-04-24T12:28:48;100458.09;;;11.40
66113;BMP280;52893;52.870;5.822;2023-04-24T12:31:17;100466.84;;;11.45
66113;BMP280;52893;52.870;5.822;2023-04-24T12:33:44;100479.97;;;11.40
66113;BMP280;52893;52.870;5.822;2023-04-24T12:36:12;100470.22;;;11.18
66113;BMP280;52893;52.870;5.822;2023-04-24T12:38:39;100476.50;;;11.19
66113;BMP280;52893;52.870;5.822;2023-04-24T12:41:12;100476.50;;;11.19
66113;BMP280;52893;52.870;5.822;2023-04-24T12:43:51;100487.91;;;11.21
66113;BMP280;52893;52.870;5.822;2023-04-24T12:46:20;100477.16;;;11.15
66113;BMP280;52893;52.870;5.822;2023-04-24T12:48:47;100490.88;;;11.28
66113;BMP280;52893;52.870;5.822;2023-04-24T12:51:14;100495.66;;;11.31
66113;BMP280;52893;52.870;5.822;2023-04-24T12:53:42;100501.34;;;11.38
66113;BMP280;52893;52.870;5.822;2023-04-24T12:56:09;100490.91;;;11.40
66113;BMP280;52893;52.870;5.822;2023-04-24T12:58:37;100515.22;;;11.33
66113;BMP280;52893;52.870;5.822;2023-04-24T13:01:05;100503.75;;;11.06
66113;BMP280;52893;52.870;5.822;2023-04-24T13:03:35;100511.75;;;10.91
66113;BMP280;52893;52.870;5.822;2023-04-24T13:06:03;100517.56;;;10.68
66113;BMP280;52893;52.870;5.822;2023-04-24T13:08:30;100523.94;;;10.52
66113;BMP280;52893;52.870;5.822;2023-04-24T13:10:57;100508.00;;;10.33
66113;BMP280;52893;52.870;5.822;2023-04-24T13:13:24;100517.41;;;10.44
66113;BMP280;52893;52.870;5.822;2023-04-24T13:15:52;100522.19;;;10.47
66113;BMP280;52893;52.870;5.822;2023-04-24T13:18:19;100523.47;;;10.50
66113;BMP280;52893;52.870;5.822;2023-04-24T13:20:48;100427.88;;;9.96
66113;BMP280;52893;52.870;5.822;2023-04-24T13:23:16;100499.31;;;10.40
66113;BMP280;52893;52.870;5.822;2023-04-24T13:25:44;100525.81;;;10.60
66113;BMP280;52893;52.870;5.822;2023-04-24T13:28:13;100524.69;;;10.61
66113;BMP280;52893;52.870;5.822;2023-04-24T13:30:41;100501.38;;;10.43
66113;BMP280;52893;52.870;5.822;2023-04-24T13:33:08;100540.53;;;10.67
66113;BMP280;52893;52.870;5.822;2023-04-24T13:35:36;100486.72;;;10.47
66113;BMP280;52893;52.870;5.822;2023-04-24T13:38:05;100530.19;;;10.82
66113;BMP280;52893;52.870;5.822;2023-04-24T13:40:33;100537.13;;;10.91
66113;BMP280;52893;52.870;5.822;2023-04-24T13:43:01;100537.59;;;10.93
66113;BMP280;52893;52.870;5.822;2023-04-24T13:45:29;100544.66;;;10.94
66113;BMP280;52893;52.870;5.822;2023-04-24T13:47:56;100544.66;;;10.94
66113;BMP280;52893;52.870;5.822;2023-04-24T13:50:24;100543.06;;;10.93
66113;BMP280;52893;52.870;5.822;2023-04-24T13:52:51;100526.75;;;10.85
66113;BMP280;52893;52.870;5.822;2023-04-24T13:55:20;100519.41;;;10.77
66113;BMP280;52893;52.870;5.822;2023-04-24T13:57:47;100531.13;;;10.77
66113;BMP280;52893;52.870;5.822;2023-04-24T14:00:15;100531.81;;;10.74
66113;BMP280;52893;52.870;5.822;2023-04-24T14:02:43;100553.84;;;10.90
66113;BMP280;52893;52.870;5.822;2023-04-24T14:05:12;100549.00;;;10.95
66113;BMP280;52893;52.870;5.822;2023-04-24T14:07:41;100548.47;;;11.02
66113;BMP280;52893;52.870;5.822;2023-04-24T14:10:09;100556.44;;;11.07
66113;BMP280;52893;52.870;5.822;2023-04-24T14:12:37;100546.47;;;11.11
66113;BMP280;52893;52.870;5.822;2023-04-24T14:15:06;100551.38;;;11.18